Time;durP1;ratioP1;P1;durP2;ratioP2;P2;SDS_P1;SDS_P2;PMS_P1;PMS_P2;Temp;Humidity;BMP_temperature;BMP_pressure;BME280_temperature;BME280_humidity;BME280_pressure;Samples;Min_cycle;Max_cycle;Signal;HPM_P1;HPM_P2
2022/04/22 00:01:29;;;;;;;17.58;9.10;;;;;;;;;;6288110;28;20049;-81
2022/04/22 00:04:31;;;;;;;19.33;10.02;;;;;;;;;;6298679;28;20513;-81
2022/04/22 00:07:33;;;;;;;20.87;10.37;;;;;;;;;;6301325;28;20047;-81
2022/04/22 00:10:35;;;;;;;19.35;10.45;;;;;;;;;;6299059;28;20048;-81
2022/04/22 00:13:37;;;;;;;21.23;10.43;;;;;;;;;;6274363;28;20044;-80
2022/04/22 00:16:38;;;;;;;19.15;10.02;;;;;;;;;;6263689;28;20064;-81
2022/04/22 00:19:40;;;;;;;22.05;11.35;;;;;;;;;;6251253;28;20060;-79
2022/04/22 00:22:42;;;;;;;21.05;9.65;;;;;;;;;;6249293;28;20056;-80
2022/04/22 00:25:44;;;;;;;20.90;10.98;;;;;;;;;;6293340;28;20441;-80
2022/04/22 00:28:46;;;;;;;20.42;9.80;;;;;;;;;;6314854;28;20061;-81
2022/04/22 00:31:48;;;;;;;21.67;10.43;;;;;;;;;;6283801;28;20052;-81
2022/04/22 00:34:49;;;;;;;18.10;10.05;;;;;;;;;;6274407;28;20045;-81
2022/04/22 00:37:51;;;;;;;19.60;9.45;;;;;;;;;;6271892;28;20063;-80
2022/04/22 00:40:55;;;;;;;20.20;9.50;;;;;;;;;;6286667;28;20072;-81
2022/04/22 00:43:56;;;;;;;20.80;10.05;;;;;;;;;;6289585;28;20049;-80
2022/04/22 00:46:58;;;;;;;18.42;9.75;;;;;;;;;;6289027;28;20049;-81
2022/04/22 00:50:01;;;;;;;21.30;11.02;;;;;;;;;;6297649;28;20198;-80
2022/04/22 00:53:02;;;;;;;20.73;10.93;;;;;;;;;;6298290;28;20045;-80
2022/04/22 00:56:10;;;;;;;25.20;11.60;;;;;;;;;;6281877;28;20074;-80
2022/04/22 00:59:13;;;;;;;22.63;11.07;;;;;;;;;;6294815;28;20036;-80
2022/04/22 01:02:15;;;;;;;28.42;12.32;;;;;;;;;;6295917;28;20044;-80
2022/04/22 01:11:59;;;;;;;25.60;12.27;;;;;;;;;;6273231;28;20041;-81
2022/04/22 01:15:01;;;;;;;24.00;11.82;;;;;;;;;;6275205;28;20048;-79
2022/04/22 01:18:03;;;;;;;25.92;11.93;;;;;;;;;;6280161;28;20064;-80
2022/04/22 01:21:05;;;;;;;24.40;12.23;;;;;;;;;;6272154;28;20068;-81
2022/04/22 01:24:07;;;;;;;26.52;12.48;;;;;;;;;;6275522;28;20128;-80
2022/04/22 01:27:10;;;;;;;27.75;13.15;;;;;;;;;;6274544;28;20067;-80
2022/04/22 01:30:11;;;;;;;28.88;13.52;;;;;;;;;;6273555;28;20118;-81
2022/04/22 01:33:13;;;;;;;25.77;12.15;;;;;;;;;;6292312;28;20063;-81
2022/04/22 01:36:16;;;;;;;29.70;13.32;;;;;;;;;;6302287;28;20063;-81
2022/04/22 01:39:18;;;;;;;30.33;14.18;;;;;;;;;;6293777;28;20048;-80
2022/04/22 01:42:20;;;;;;;30.83;13.88;;;;;;;;;;6295428;28;20056;-80
2022/04/22 01:45:22;;;;;;;28.60;12.90;;;;;;;;;;6300253;28;20044;-80
2022/04/22 01:48:23;;;;;;;27.95;13.18;;;;;;;;;;6278868;28;20044;-81
2022/04/22 01:51:25;;;;;;;25.52;12.50;;;;;;;;;;6290464;28;20068;-81
2022/04/22 01:54:27;;;;;;;28.52;13.68;;;;;;;;;;6295597;28;20493;-80
2022/04/22 01:57:28;;;;;;;29.17;12.68;;;;;;;;;;6302896;28;20032;-79
2022/04/22 02:00:30;;;;;;;29.25;13.32;;;;;;;;;;6299858;28;20098;-80
2022/04/22 02:03:32;;;;;;;25.98;12.10;;;;;;;;;;6303897;28;20064;-81
2022/04/22 02:06:34;;;;;;;29.23;12.85;;;;;;;;;;6318310;28;20416;-80
2022/04/22 02:09:35;;;;;;;31.00;13.55;;;;;;;;;;6301909;28;20516;-79
2022/04/22 02:12:37;;;;;;;31.40;14.52;;;;;;;;;;6300650;28;20413;-80
2022/04/22 02:15:39;;;;;;;28.33;14.07;;;;;;;;;;6300926;28;20040;-79
2022/04/22 02:18:42;;;;;;;33.25;13.65;;;;;;;;;;6302238;28;20103;-80
2022/04/22 02:21:44;;;;;;;;;;;;;;;;;;6301694;28;20044;-81
2022/04/22 02:24:46;;;;;;;29.65;13.20;;;;;;;;;;6291578;28;19994;-81
2022/04/22 02:31:08;;;;;;;25.90;12.20;;;;;;;;;;6271814;28;20114;-80
2022/04/22 02:34:10;;;;;;;28.13;11.88;;;;;;;;;;6275605;28;20477;-81
2022/04/22 02:37:12;;;;;;;25.70;12.38;;;;;;;;;;6276182;28;20099;-80
2022/04/22 02:45:26;;;;;;;29.67;13.18;;;;;;;;;;6292112;28;20047;-80
2022/04/22 02:46:56;;;;;;;25.90;11.32;;;;;;;;;;6298381;28;20044;-80
2022/04/22 02:50:01;;;;;;;23.23;11.13;;;;;;;;;;6300302;28;20049;-80
2022/04/22 02:53:03;;;;;;;26.67;12.15;;;;;;;;;;6298852;28;20048;-80
2022/04/22 02:56:06;;;;;;;24.23;10.75;;;;;;;;;;6273699;28;20060;-80
2022/04/22 02:59:08;;;;;;;23.92;10.93;;;;;;;;;;6276624;28;20044;-80
2022/04/22 03:02:10;;;;;;;23.33;12.27;;;;;;;;;;6298868;28;20052;-79
2022/04/22 03:05:12;;;;;;;24.67;10.98;;;;;;;;;;6274850;28;20056;-81
2022/04/22 03:08:14;;;;;;;19.63;9.95;;;;;;;;;;6274552;28;20041;-79
2022/04/22 03:11:21;;;;;;;23.60;10.15;;;;;;;;;;6272538;28;20057;-79
2022/04/22 03:14:24;;;;;;;21.15;10.13;;;;;;;;;;6272107;28;20063;-80
2022/04/22 03:17:26;;;;;;;21.40;10.80;;;;;;;;;;6274310;28;20041;-79
2022/04/22 03:20:28;;;;;;;21.48;10.50;;;;;;;;;;6274874;28;20064;-80
2022/04/22 03:23:29;;;;;;;21.45;10.20;;;;;;;;;;6267270;28;20056;-80
2022/04/22 03:26:31;;;;;;;21.25;10.25;;;;;;;;;;6283198;28;20037;-81
2022/04/22 03:29:35;;;;;;;23.00;10.60;;;;;;;;;;6299855;27;20041;-80
2022/04/22 03:32:36;;;;;;;21.60;10.65;;;;;;;;;;6253907;28;20049;-80
2022/04/22 03:35:38;;;;;;;19.08;9.45;;;;;;;;;;6250562;28;20057;-80
2022/04/22 03:38:40;;;;;;;19.63;9.40;;;;;;;;;;6250449;28;20064;-79
2022/04/22 03:41:42;;;;;;;23.58;9.80;;;;;;;;;;6254248;28;20080;-81
2022/04/22 03:44:43;;;;;;;19.52;9.02;;;;;;;;;;6298710;28;20077;-80
2022/04/22 03:47:45;;;;;;;19.40;9.57;;;;;;;;;;6307422;28;20048;-78
2022/04/22 03:50:47;;;;;;;19.20;8.73;;;;;;;;;;6294994;28;20064;-80
2022/04/22 03:53:48;;;;;;;20.90;8.90;;;;;;;;;;6289112;28;20049;-80
2022/04/22 04:00:11;;;;;;;19.73;9.15;;;;;;;;;;6269304;28;20049;-79
2022/04/22 04:03:17;;;;;;;17.90;9.48;;;;;;;;;;6294628;28;20114;-80
2022/04/22 04:06:18;;;;;;;19.85;9.52;;;;;;;;;;6294823;28;20048;-79
2022/04/22 04:16:00;;;;;;;21.42;9.90;;;;;;;;;;6270184;28;20114;-80
2022/04/22 04:25:44;;;;;;;20.67;10.35;;;;;;;;;;6270984;28;20041;-80
2022/04/22 04:28:47;;;;;;;23.15;11.35;;;;;;;;;;6271513;28;20053;-79
2022/04/22 04:31:48;;;;;;;22.00;10.75;;;;;;;;;;6267956;28;20040;-81
2022/04/22 04:34:50;;;;;;;23.05;10.93;;;;;;;;;;6270699;28;20047;-80
2022/04/22 04:37:52;;;;;;;23.77;10.50;;;;;;;;;;6269890;28;20090;-79
2022/04/22 04:40:54;;;;;;;27.13;12.13;;;;;;;;;;6266502;28;20076;-80
2022/04/22 04:43:55;;;;;;;21.95;10.20;;;;;;;;;;6290133;28;20101;-81
2022/04/22 04:46:57;;;;;;;23.58;10.35;;;;;;;;;;6290425;28;20056;-81
2022/04/22 04:50:00;;;;;;;;;;;;;;;;;;6295305;28;20497;-81
2022/04/22 04:53:02;;;;;;;21.73;10.15;;;;;;;;;;6294997;28;19920;-80
2022/04/22 04:56:04;;;;;;;23.58;10.77;;;;;;;;;;6293311;28;20118;-79
2022/04/22 04:59:05;;;;;;;25.17;11.30;;;;;;;;;;6295953;28;20044;-81
2022/04/22 05:02:07;;;;;;;21.58;10.70;;;;;;;;;;6292713;28;20040;-81
2022/04/22 05:05:10;;;;;;;22.10;10.85;;;;;;;;;;6292339;28;20036;-81
2022/04/22 05:08:12;;;;;;;22.63;10.55;;;;;;;;;;6292484;28;20048;-81
2022/04/22 05:11:14;;;;;;;20.55;10.73;;;;;;;;;;6275543;28;20061;-80
2022/04/22 05:14:16;;;;;;;21.90;10.10;;;;;;;;;;6269420;28;20048;-81
2022/04/22 05:17:17;;;;;;;18.35;9.20;;;;;;;;;;6285634;28;20121;-80
2022/04/22 05:20:21;;;;;;;18.02;9.82;;;;;;;;;;6269118;28;20047;-80
2022/04/22 05:23:23;;;;;;;18.98;9.65;;;;;;;;;;6272592;28;20130;-79
2022/04/22 05:26:24;;;;;;;21.45;10.10;;;;;;;;;;6249309;28;20094;-80
2022/04/22 05:32:49;;;;;;;18.75;9.90;;;;;;;;;;6244679;28;20076;-80
2022/04/22 05:35:51;;;;;;;22.85;11.25;;;;;;;;;;6248593;28;20101;-82
2022/04/22 05:38:52;;;;;;;19.33;9.68;;;;;;;;;;6256322;28;20117;-81
2022/04/22 05:41:54;;;;;;;19.35;9.77;;;;;;;;;;6268913;28;20052;-82
2022/04/22 05:44:56;;;;;;;18.20;10.55;;;;;;;;;;6296513;28;20106;-80
2022/04/22 05:47:58;;;;;;;20.27;10.77;;;;;;;;;;6293017;28;20508;-81
2022/04/22 05:51:00;;;;;;;18.93;9.13;;;;;;;;;;6309208;28;20044;-80
2022/04/22 05:54:01;;;;;;;21.90;10.20;;;;;;;;;;6291444;28;20041;-81
2022/04/22 05:57:03;;;;;;;20.05;10.00;;;;;;;;;;6276020;28;20052;-80
2022/04/22 06:00:08;;;;;;;17.98;9.75;;;;;;;;;;6276576;28;20044;-81
2022/04/22 06:03:15;;;;;;;21.30;9.93;;;;;;;;;;6278086;28;20463;-80
2022/04/22 06:06:17;;;;;;;20.83;10.02;;;;;;;;;;6276357;28;20096;-81
2022/04/22 06:12:38;;;;;;;19.45;9.65;;;;;;;;;;6276054;28;20061;-82
2022/04/22 06:15:40;;;;;;;19.45;10.07;;;;;;;;;;6277972;28;20568;-81
2022/04/22 06:18:42;;;;;;;17.35;8.73;;;;;;;;;;6276094;28;20048;-81
2022/04/22 06:21:43;;;;;;;20.23;9.50;;;;;;;;;;6284861;28;20602;-81
2022/04/22 06:24:45;;;;;;;20.95;10.05;;;;;;;;;;6271452;28;20629;-81
2022/04/22 06:27:47;;;;;;;20.83;9.85;;;;;;;;;;6297219;28;20048;-79
2022/04/22 06:30:49;;;;;;;18.88;9.68;;;;;;;;;;6286506;28;20095;-80
2022/04/22 06:33:51;;;;;;;19.30;10.05;;;;;;;;;;6299116;27;20116;-80
2022/04/22 06:36:52;;;;;;;17.67;9.27;;;;;;;;;;6290762;27;20075;-80
2022/04/22 06:46:35;;;;;;;18.70;9.30;;;;;;;;;;6279491;28;20044;-81
2022/04/22 06:49:37;;;;;;;18.67;8.90;;;;;;;;;;6272582;28;20052;-81
2022/04/22 06:52:39;;;;;;;22.48;9.77;;;;;;;;;;6271663;28;20132;-81
2022/04/22 06:55:40;;;;;;;16.55;9.35;;;;;;;;;;6270648;28;20048;-82
2022/04/22 06:58:42;;;;;;;18.38;9.45;;;;;;;;;;6272848;28;20095;-81
2022/04/22 07:01:44;;;;;;;17.58;8.90;;;;;;;;;;6260042;28;20057;-83
2022/04/22 07:04:46;;;;;;;19.38;9.07;;;;;;;;;;6248534;28;20175;-84
2022/04/22 07:07:48;;;;;;;16.45;8.93;;;;;;;;;;6248032;28;20049;-81
2022/04/22 07:10:50;;;;;;;18.15;9.75;;;;;;;;;;6250963;28;20071;-80
2022/04/22 07:13:58;;;;;;;19.85;9.52;;;;;;;;;;6272523;28;20534;-80
2022/04/22 07:17:01;;;;;;;19.85;10.27;;;;;;;;;;6256120;28;20065;-80
2022/04/22 07:20:09;;;;;;;18.17;9.65;;;;;;;;;;6245020;28;20100;-80
2022/04/22 07:23:17;;;;;;;17.92;9.65;;;;;;;;;;6247867;28;20046;-82
2022/04/22 07:26:20;;;;;;;17.50;9.65;;;;;;;;;;6248400;28;20056;-82
2022/04/22 07:29:24;;;;;;;17.45;9.55;;;;;;;;;;6266296;28;20506;-80
2022/04/22 07:32:27;;;;;;;19.83;9.02;;;;;;;;;;6267527;28;20114;-80
2022/04/22 07:35:28;;;;;;;15.52;8.77;;;;;;;;;;6274076;28;20053;-80
2022/04/22 07:38:30;;;;;;;22.40;9.85;;;;;;;;;;6294262;28;20449;-82
2022/04/22 07:41:33;;;;;;;18.88;9.20;;;;;;;;;;6305697;28;20156;-81
2022/04/22 07:47:57;;;;;;;16.58;9.05;;;;;;;;;;6273809;28;20105;-81
2022/04/22 07:50:59;;;;;;;17.48;9.13;;;;;;;;;;6286090;28;20508;-81
2022/04/22 07:54:01;;;;;;;16.08;8.93;;;;;;;;;;6299060;28;20040;-81
2022/04/22 07:57:03;;;;;;;18.80;9.90;;;;;;;;;;6312431;27;20048;-82
2022/04/22 08:00:05;;;;;;;17.88;10.00;;;;;;;;;;6295444;28;20040;-82
2022/04/22 08:03:15;;;;;;;17.90;9.45;;;;;;;;;;6272815;28;20041;-81
2022/04/22 08:06:17;;;;;;;19.48;9.88;;;;;;;;;;6287307;28;20294;-81
2022/04/22 08:09:18;;;;;;;15.20;9.30;;;;;;;;;;6272202;28;20067;-79
2022/04/22 08:12:21;;;;;;;18.13;9.90;;;;;;;;;;6269851;28;20055;-83
2022/04/22 08:15:30;;;;;;;19.17;9.35;;;;;;;;;;6271836;28;20106;-80
2022/04/22 08:18:31;;;;;;;17.75;9.63;;;;;;;;;;6272622;28;20048;-82
2022/04/22 08:21:33;;;;;;;18.58;9.77;;;;;;;;;;6269111;28;20045;-81
2022/04/22 08:24:35;;;;;;;16.67;8.98;;;;;;;;;;6271549;28;20091;-82
2022/04/22 08:27:37;;;;;;;15.43;9.25;;;;;;;;;;6268352;28;20124;-82
2022/04/22 08:30:39;;;;;;;18.58;9.63;;;;;;;;;;6268183;28;20103;-82
2022/04/22 08:33:43;;;;;;;16.42;9.52;;;;;;;;;;6286650;28;20107;-81
2022/04/22 08:36:47;;;;;;;17.45;9.73;;;;;;;;;;6271486;28;20049;-82
2022/04/22 08:39:49;;;;;;;16.90;9.73;;;;;;;;;;6271301;28;20045;-83
2022/04/22 08:42:52;;;;;;;16.35;8.93;;;;;;;;;;6301752;28;20087;-82
2022/04/22 08:45:53;;;;;;;15.98;9.55;;;;;;;;;;6311672;28;20108;-80
2022/04/22 08:52:23;;;;;;;15.02;8.57;;;;;;;;;;6294850;28;20086;-82
2022/04/22 08:55:26;;;;;;;15.23;9.18;;;;;;;;;;6284540;28;20430;-82
2022/04/22 08:58:29;;;;;;;17.30;9.00;;;;;;;;;;6270926;28;20052;-83
2022/04/22 09:01:31;;;;;;;15.07;9.20;;;;;;;;;;6279147;28;20044;-81
2022/04/22 09:04:33;;;;;;;14.67;9.57;;;;;;;;;;6292148;28;20056;-82
2022/04/22 09:07:37;;;;;;;16.38;10.15;;;;;;;;;;6292180;27;20049;-80
2022/04/22 09:10:40;;;;;;;14.38;9.43;;;;;;;;;;6262755;28;20142;-79
2022/04/22 09:13:42;;;;;;;15.95;9.75;;;;;;;;;;6258404;28;20149;-78
2022/04/22 09:16:43;;;;;;;17.02;9.65;;;;;;;;;;6270957;28;20053;-79
2022/04/22 09:19:45;;;;;;;16.55;10.00;;;;;;;;;;6282702;28;20117;-79
2022/04/22 09:22:47;;;;;;;15.40;9.60;;;;;;;;;;6289076;28;20044;-78
2022/04/22 09:25:48;;;;;;;16.38;10.23;;;;;;;;;;6290728;28;20083;-80
2022/04/22 09:29:00;;;;;;;18.98;11.15;;;;;;;;;;6296884;28;20049;-81
2022/04/22 09:32:02;;;;;;;17.88;10.95;;;;;;;;;;6294715;28;20122;-80
2022/04/22 09:35:16;;;;;;;16.00;10.45;;;;;;;;;;6298233;28;20142;-80
2022/04/22 09:45:09;;;;;;;17.02;9.93;;;;;;;;;;6298687;28;20032;-80
2022/04/22 09:48:16;;;;;;;16.70;10.32;;;;;;;;;;6326868;28;20116;-79
2022/04/22 09:51:22;;;;;;;16.45;10.38;;;;;;;;;;6296875;28;20113;-79
2022/04/22 09:54:24;;;;;;;17.80;10.70;;;;;;;;;;6289591;28;20048;-80
2022/04/22 09:57:26;;;;;;;17.75;10.38;;;;;;;;;;6272265;28;20056;-79
2022/04/22 10:00:30;;;;;;;18.52;11.88;;;;;;;;;;6272366;28;20102;-79
2022/04/22 10:03:37;;;;;;;17.92;10.43;;;;;;;;;;6297841;28;20048;-79
2022/04/22 10:06:40;;;;;;;22.45;12.07;;;;;;;;;;6300199;28;20066;-80
2022/04/22 10:09:44;;;;;;;;;;;;;;;;;;6300533;28;20056;-80
2022/04/22 10:12:48;;;;;;;16.95;10.98;;;;;;;;;;6273715;28;20009;-78
2022/04/22 10:15:51;;;;;;;19.60;11.25;;;;;;;;;;6273184;28;20133;-78
2022/04/22 10:18:53;;;;;;;18.08;10.98;;;;;;;;;;6269121;28;20519;-78
2022/04/22 10:21:55;;;;;;;18.85;11.75;;;;;;;;;;6265528;28;20183;-80
2022/04/22 10:24:58;;;;;;;19.92;11.15;;;;;;;;;;6276263;28;20045;-79
2022/04/22 10:28:03;;;;;;;17.63;10.70;;;;;;;;;;6291376;28;20174;-80
2022/04/22 10:31:06;;;;;;;17.63;10.80;;;;;;;;;;6290013;28;20070;-78
2022/04/22 10:34:08;;;;;;;17.98;11.05;;;;;;;;;;6289338;28;20115;-77
2022/04/22 10:37:25;;;;;;;19.13;11.75;;;;;;;;;;6284578;28;20060;-78
2022/04/22 10:40:26;;;;;;;18.58;11.52;;;;;;;;;;6290244;28;20127;-79
2022/04/22 10:43:29;;;;;;;17.55;10.98;;;;;;;;;;6296111;28;20130;-80
2022/04/22 10:49:51;;;;;;;19.55;11.32;;;;;;;;;;6288931;28;20018;-77
2022/04/22 10:53:02;;;;;;;16.67;10.40;;;;;;;;;;6288321;27;20133;-79
2022/04/22 10:56:25;;;;;;;18.10;10.98;;;;;;;;;;6285123;28;20410;-79
2022/04/22 10:59:32;;;;;;;19.35;11.65;;;;;;;;;;6280547;28;20087;-79
2022/04/22 11:02:36;;;;;;;17.55;11.07;;;;;;;;;;6277894;28;20049;-78
2022/04/22 11:05:44;;;;;;;16.83;10.43;;;;;;;;;;6283280;28;20045;-77
2022/04/22 11:08:59;;;;;;;16.08;10.68;;;;;;;;;;6287090;27;20041;-79
2022/04/22 11:12:01;;;;;;;15.25;10.30;;;;;;;;;;6288270;28;20053;-79
2022/04/22 11:15:02;;;;;;;17.25;11.25;;;;;;;;;;6282057;28;20170;-80
2022/04/22 11:18:04;;;;;;;15.98;10.98;;;;;;;;;;6293345;28;20129;-80
2022/04/22 11:21:19;;;;;;;14.00;10.15;;;;;;;;;;6292882;28;20064;-79
2022/04/22 11:24:29;;;;;;;14.90;10.40;;;;;;;;;;6295746;28;20615;-81
2022/04/22 11:27:30;;;;;;;14.52;9.95;;;;;;;;;;6272211;28;20579;-80
2022/04/22 11:30:32;;;;;;;15.02;10.80;;;;;;;;;;6269848;28;20120;-77
2022/04/22 11:34:03;;;;;;;13.33;9.47;;;;;;;;;;6244568;28;20065;-79
2022/04/22 11:37:20;;;;;;;15.32;10.05;;;;;;;;;;6246839;28;20440;-80
2022/04/22 11:40:22;;;;;;;13.25;9.30;;;;;;;;;;6265860;28;20095;-80
2022/04/22 11:43:28;;;;;;;15.18;9.68;;;;;;;;;;6306615;28;20230;-78
2022/04/22 11:46:29;;;;;;;15.05;10.40;;;;;;;;;;6295330;28;20090;-79
2022/04/22 11:49:33;;;;;;;14.70;9.98;;;;;;;;;;6295967;28;20044;-79
2022/04/22 11:52:36;;;;;;;13.15;8.82;;;;;;;;;;6295287;28;20048;-79
2022/04/22 11:55:38;;;;;;;14.75;9.77;;;;;;;;;;6291507;28;20129;-79
2022/04/22 11:58:40;;;;;;;13.82;9.55;;;;;;;;;;6271906;28;20514;-79
2022/04/22 12:08:22;;;;;;;13.90;9.40;;;;;;;;;;6294738;28;20508;-80
2022/04/22 12:11:24;;;;;;;11.50;8.80;;;;;;;;;;6293103;28;20068;-81
2022/04/22 12:14:28;;;;;;;11.38;9.27;;;;;;;;;;6292381;28;20060;-80
2022/04/22 12:17:30;;;;;;;11.60;8.82;;;;;;;;;;6274837;28;20060;-79
2022/04/22 12:20:32;;;;;;;12.63;9.27;;;;;;;;;;6266908;28;20128;-80
2022/04/22 12:23:36;;;;;;;16.92;9.60;;;;;;;;;;6269037;28;20041;-80
2022/04/22 12:26:39;;;;;;;13.95;10.50;;;;;;;;;;6270084;28;20044;-78
2022/04/22 12:29:41;;;;;;;12.05;9.25;;;;;;;;;;6267932;28;20162;-79
2022/04/22 12:32:53;;;;;;;13.73;10.00;;;;;;;;;;6267375;28;20045;-80
2022/04/22 12:36:10;;;;;;;13.50;9.68;;;;;;;;;;6267088;28;20443;-79
2022/04/22 12:39:44;;;;;;;15.75;9.40;;;;;;;;;;6265135;28;20064;-79
2022/04/22 12:42:46;;;;;;;13.77;10.00;;;;;;;;;;6279555;28;20172;-78
2022/04/22 12:52:45;;;;;;;13.70;9.18;;;;;;;;;;6266890;28;20230;-79
2022/04/22 12:55:58;;;;;;;15.02;9.48;;;;;;;;;;6279712;28;20068;-79
2022/04/22 12:59:00;;;;;;;13.80;8.48;;;;;;;;;;6279594;28;20587;-78
2022/04/22 13:02:07;;;;;;;12.57;9.00;;;;;;;;;;6270942;28;20037;-79
2022/04/22 13:05:19;;;;;;;14.48;10.15;;;;;;;;;;6276558;28;20040;-77
2022/04/22 13:08:21;;;;;;;13.70;9.68;;;;;;;;;;6277582;27;20121;-77
2022/04/22 13:11:22;;;;;;;12.85;9.35;;;;;;;;;;6250662;28;20658;-80
2022/04/22 13:14:24;;;;;;;13.85;9.45;;;;;;;;;;6259185;28;20072;-80
2022/04/22 13:17:26;;;;;;;15.95;10.45;;;;;;;;;;6271441;28;20053;-80
2022/04/22 13:20:27;;;;;;;14.48;10.73;;;;;;;;;;6297018;28;20110;-80
2022/04/22 13:23:29;;;;;;;13.85;10.23;;;;;;;;;;6269312;28;20048;-79
2022/04/22 13:26:31;;;;;;;15.02;10.63;;;;;;;;;;6286725;28;20178;-79
2022/04/22 13:29:33;;;;;;;15.27;10.50;;;;;;;;;;6288330;28;20100;-79
2022/04/22 13:32:35;;;;;;;15.30;10.17;;;;;;;;;;6282503;28;20052;-80
2022/04/22 13:35:37;;;;;;;15.23;11.35;;;;;;;;;;6278108;28;20082;-79
2022/04/22 13:38:39;;;;;;;15.60;10.15;;;;;;;;;;6282815;28;20051;-77
2022/04/22 13:41:41;;;;;;;15.48;10.07;;;;;;;;;;6293283;28;20090;-78
2022/04/22 13:54:43;;;;;;;13.57;10.02;;;;;;;;;;6279528;28;20044;-79
2022/04/22 13:57:44;;;;;;;12.35;9.10;;;;;;;;;;6273718;28;20041;-80
2022/04/22 14:00:46;;;;;;;13.93;10.05;;;;;;;;;;6270920;28;20056;-77
2022/04/22 14:03:48;;;;;;;12.27;9.30;;;;;;;;;;6265509;28;20179;-77
2022/04/22 14:06:49;;;;;;;12.20;9.27;;;;;;;;;;6266362;28;20124;-79
2022/04/22 14:09:51;;;;;;;12.77;9.02;;;;;;;;;;6266646;28;20056;-79
2022/04/22 14:12:53;;;;;;;11.75;8.85;;;;;;;;;;6268589;28;20044;-79
2022/04/22 14:15:54;;;;;;;13.02;9.48;;;;;;;;;;6264232;28;20045;-79
2022/04/22 14:18:57;;;;;;;12.33;9.23;;;;;;;;;;6258451;28;20525;-79
2022/04/22 14:21:58;;;;;;;9.73;8.00;;;;;;;;;;6283072;28;20458;-79
2022/04/22 14:25:00;;;;;;;10.95;8.63;;;;;;;;;;6297751;28;20076;-78
2022/04/22 14:28:03;;;;;;;11.35;9.15;;;;;;;;;;6288989;28;20119;-79
2022/04/22 14:31:06;;;;;;;;;;;;;;;;;;6283326;28;20114;-79
2022/04/22 14:34:08;;;;;;;14.65;9.07;;;;;;;;;;6272753;28;20006;-80
2022/04/22 14:37:09;;;;;;;11.90;9.05;;;;;;;;;;6301722;28;20306;-79
2022/04/22 14:40:11;;;;;;;11.70;8.30;;;;;;;;;;6286007;28;20130;-78
2022/04/22 14:43:13;;;;;;;12.88;9.32;;;;;;;;;;6292588;27;20130;-79
2022/04/22 14:46:16;;;;;;;12.18;9.02;;;;;;;;;;6290057;28;20064;-79
2022/04/22 14:49:19;;;;;;;13.85;9.13;;;;;;;;;;6294735;28;20056;-80
2022/04/22 14:52:21;;;;;;;9.90;8.18;;;;;;;;;;6293332;28;20127;-80
2022/04/22 14:55:23;;;;;;;10.32;8.65;;;;;;;;;;6276521;28;20044;-79
2022/04/22 14:58:26;;;;;;;11.15;9.13;;;;;;;;;;6294670;28;20052;-79
2022/04/22 15:01:28;;;;;;;10.50;8.37;;;;;;;;;;6281592;28;20080;-80
2022/04/22 15:04:29;;;;;;;13.70;9.20;;;;;;;;;;6271103;28;20451;-79
2022/04/22 15:07:31;;;;;;;12.55;9.52;;;;;;;;;;6268280;28;20064;-78
2022/04/22 15:10:33;;;;;;;13.02;9.60;;;;;;;;;;6277755;28;20060;-79
2022/04/22 15:13:34;;;;;;;16.70;9.98;;;;;;;;;;6293535;28;20127;-79
2022/04/22 15:16:36;;;;;;;12.68;9.40;;;;;;;;;;6283056;28;20060;-79
2022/04/22 15:26:18;;;;;;;13.20;9.65;;;;;;;;;;6268784;28;20269;-81
2022/04/22 15:29:20;;;;;;;12.88;9.30;;;;;;;;;;6267282;28;20211;-79
2022/04/22 15:32:22;;;;;;;14.50;10.77;;;;;;;;;;6272926;28;20045;-80
2022/04/22 15:35:25;;;;;;;13.77;10.35;;;;;;;;;;6268844;28;20129;-80
2022/04/22 15:38:38;;;;;;;13.63;10.35;;;;;;;;;;6268377;28;20045;-79
2022/04/22 15:41:42;;;;;;;14.25;10.73;;;;;;;;;;6284103;28;20093;-79
2022/04/22 15:44:47;;;;;;;13.32;9.77;;;;;;;;;;6293113;28;20071;-79
2022/04/22 15:47:49;;;;;;;12.57;9.52;;;;;;;;;;6292213;28;20183;-79
2022/04/22 15:50:51;;;;;;;14.00;10.63;;;;;;;;;;6291826;28;20064;-80
2022/04/22 15:53:54;;;;;;;14.95;9.90;;;;;;;;;;6292255;28;20143;-80
2022/04/22 15:56:56;;;;;;;15.00;11.45;;;;;;;;;;6273939;28;20130;-79
2022/04/22 15:59:58;;;;;;;16.33;11.27;;;;;;;;;;6272695;28;20098;-80
2022/04/22 16:03:00;;;;;;;14.70;10.83;;;;;;;;;;6269704;28;20087;-79
2022/04/22 16:06:03;;;;;;;13.18;9.98;;;;;;;;;;6267910;28;20128;-80
2022/04/22 16:09:05;;;;;;;15.40;11.32;;;;;;;;;;6280016;28;20477;-79
2022/04/22 16:15:28;;;;;;;14.13;9.73;;;;;;;;;;6288386;28;20049;-79
2022/04/22 16:18:30;;;;;;;14.57;10.37;;;;;;;;;;6267166;28;20122;-78
2022/04/22 16:21:32;;;;;;;15.88;11.75;;;;;;;;;;6282033;28;20425;-79
2022/04/22 16:24:34;;;;;;;15.05;10.77;;;;;;;;;;6290004;27;20091;-78
2022/04/22 16:27:36;;;;;;;15.02;11.20;;;;;;;;;;6286937;28;20045;-79
2022/04/22 16:30:38;;;;;;;15.00;10.80;;;;;;;;;;6286557;28;20072;-79
2022/04/22 16:33:40;;;;;;;14.03;10.73;;;;;;;;;;6291576;28;20051;-79
2022/04/22 16:36:42;;;;;;;18.80;11.68;;;;;;;;;;6294064;27;20097;-80
2022/04/22 16:39:43;;;;;;;19.00;12.75;;;;;;;;;;6277774;28;20060;-79
2022/04/22 16:42:45;;;;;;;21.95;12.82;;;;;;;;;;6277585;28;20067;-81
2022/04/22 16:45:49;;;;;;;17.23;11.65;;;;;;;;;;6284800;28;20085;-80
2022/04/22 16:48:52;;;;;;;14.77;11.13;;;;;;;;;;6286377;28;20048;-79
2022/04/22 16:51:54;;;;;;;16.88;12.65;;;;;;;;;;6293748;27;20113;-79
2022/04/22 16:54:56;;;;;;;17.98;10.60;;;;;;;;;;6274534;28;20053;-80
2022/04/22 16:57:57;;;;;;;16.35;11.43;;;;;;;;;;6266663;28;20069;-79
2022/04/22 17:00:59;;;;;;;18.33;12.13;;;;;;;;;;6273802;28;20037;-79
2022/04/22 17:04:01;;;;;;;15.68;11.30;;;;;;;;;;6268163;28;20090;-81
2022/04/22 17:07:03;;;;;;;18.45;11.40;;;;;;;;;;6268115;28;20072;-81
2022/04/22 17:10:05;;;;;;;15.45;11.27;;;;;;;;;;6271072;28;20488;-78
2022/04/22 17:13:07;;;;;;;16.47;11.67;;;;;;;;;;6286594;28;20136;-81
2022/04/22 17:22:57;;;;;;;17.70;12.25;;;;;;;;;;6268117;28;20041;-80
2022/04/22 17:25:59;;;;;;;16.15;11.40;;;;;;;;;;6286979;28;20064;-80
2022/04/22 17:29:00;;;;;;;16.13;11.75;;;;;;;;;;6290693;28;20117;-82
2022/04/22 17:32:02;;;;;;;14.90;10.65;;;;;;;;;;6288118;28;20049;-83
2022/04/22 17:35:08;;;;;;;15.60;10.75;;;;;;;;;;6291270;28;20180;-80
2022/04/22 17:38:10;;;;;;;17.25;10.75;;;;;;;;;;6291493;28;20596;-81
2022/04/22 17:41:11;;;;;;;17.80;11.25;;;;;;;;;;6284956;28;20123;-81
2022/04/22 17:44:13;;;;;;;15.35;11.23;;;;;;;;;;6292335;28;20106;-79
2022/04/22 17:47:15;;;;;;;15.95;11.55;;;;;;;;;;6273821;28;20127;-81
2022/04/22 17:50:23;;;;;;;16.33;11.15;;;;;;;;;;6287250;28;20528;-80
2022/04/22 17:53:25;;;;;;;14.15;10.18;;;;;;;;;;6291814;28;20118;-81
2022/04/22 17:56:28;;;;;;;14.47;9.83;;;;;;;;;;6282585;27;20057;-81
2022/04/22 17:59:30;;;;;;;13.48;9.82;;;;;;;;;;6281328;28;20500;-81
2022/04/22 18:02:32;;;;;;;16.83;10.45;;;;;;;;;;6280112;28;20064;-81
2022/04/22 18:05:33;;;;;;;11.18;9.00;;;;;;;;;;6284524;28;20135;-78
2022/04/22 18:08:36;;;;;;;13.23;9.68;;;;;;;;;;6288495;27;20121;-81
2022/04/22 18:11:40;;;;;;;14.98;9.93;;;;;;;;;;6286243;28;20040;-81
2022/04/22 18:18:02;;;;;;;13.07;9.57;;;;;;;;;;6284831;28;20041;-78
2022/04/22 18:21:05;;;;;;;13.18;8.73;;;;;;;;;;6279992;28;20125;-80
2022/04/22 18:24:07;;;;;;;13.25;9.68;;;;;;;;;;6285894;28;20048;-80
2022/04/22 18:27:10;;;;;;;14.32;9.63;;;;;;;;;;6288442;28;20068;-80
2022/04/22 18:30:20;;;;;;;14.38;9.93;;;;;;;;;;6275179;28;20045;-81
2022/04/22 18:33:22;;;;;;;12.02;9.30;;;;;;;;;;6281577;28;20067;-80
2022/04/22 18:36:23;;;;;;;12.45;9.30;;;;;;;;;;6288517;28;20041;-78
2022/04/22 18:39:25;;;;;;;12.85;9.52;;;;;;;;;;6305966;28;20067;-83
2022/04/22 18:42:28;;;;;;;14.90;9.50;;;;;;;;;;6291668;28;20126;-82
2022/04/22 18:45:30;;;;;;;13.80;9.70;;;;;;;;;;6288873;28;20041;-82
2022/04/22 18:48:31;;;;;;;12.73;9.20;;;;;;;;;;6295262;28;20881;-86
2022/04/22 18:51:36;;;;;;;14.35;8.82;;;;;;;;;;6289579;28;20044;-81
2022/04/22 18:54:38;;;;;;;10.75;8.52;;;;;;;;;;6280863;28;20126;-80
2022/04/22 18:57:41;;;;;;;12.68;8.40;;;;;;;;;;6279860;28;20158;-81
2022/04/22 19:00:42;;;;;;;10.65;8.07;;;;;;;;;;6281768;28;20043;-81
2022/04/22 19:03:44;;;;;;;12.38;8.18;;;;;;;;;;6266194;28;20044;-81
2022/04/22 19:06:47;;;;;;;14.90;8.70;;;;;;;;;;6264515;28;20313;-80
2022/04/22 19:09:48;;;;;;;13.38;8.48;;;;;;;;;;6264387;28;20163;-79
2022/04/22 19:12:50;;;;;;;14.95;10.00;;;;;;;;;;6288163;28;20709;-80
2022/04/22 19:15:52;;;;;;;14.30;9.55;;;;;;;;;;6286939;28;20046;-80
2022/04/22 19:18:54;;;;;;;12.05;8.57;;;;;;;;;;6288434;28;20174;-79
2022/04/22 19:21:56;;;;;;;12.88;9.48;;;;;;;;;;6282094;28;20044;-80
2022/04/22 19:24:58;;;;;;;13.77;9.02;;;;;;;;;;6286713;28;20048;-80
2022/04/22 19:28:00;;;;;;;12.52;8.88;;;;;;;;;;6286140;28;20151;-78
2022/04/22 19:31:03;;;;;;;13.30;9.23;;;;;;;;;;6276585;28;20175;-80
2022/04/22 19:34:05;;;;;;;12.40;9.60;;;;;;;;;;6262474;28;20380;-80
2022/04/22 19:43:48;;;;;;;14.13;10.13;;;;;;;;;;6263926;28;20132;-79